createdAt,value
2019-03-27T00:00:42.794Z,82.40
2019-03-27T00:01:15.978Z,82.50
2019-03-27T00:01:49.002Z,82.60
2019-03-27T00:02:22.037Z,82.70
2019-03-27T00:02:55.071Z,82.70
2019-03-27T00:03:28.522Z,82.90
2019-03-27T00:04:01.916Z,83.00
2019-03-27T00:04:34.935Z,83.10
2019-03-27T00:05:08.499Z,83.40
2019-03-27T00:05:41.532Z,83.60
2019-03-27T00:06:14.549Z,83.70
2019-03-27T00:06:48.006Z,83.70
2019-03-27T00:07:21.047Z,83.90
2019-03-27T00:07:54.085Z,84.10
2019-03-27T00:08:27.848Z,84.30
2019-03-27T00:09:00.858Z,84.40
2019-03-27T00:09:34.269Z,84.30
2019-03-27T00:10:10.118Z,84.40
2019-03-27T00:10:43.167Z,84.40
2019-03-27T00:11:16.622Z,84.40
2019-03-27T00:11:49.603Z,84.60
2019-03-27T00:12:23.462Z,84.80
2019-03-27T00:12:56.492Z,84.80
2019-03-27T00:13:29.518Z,85.20
2019-03-27T00:14:02.994Z,85.40
2019-03-27T00:14:36.391Z,85.90
2019-03-27T00:15:13.459Z,85.50
2019-03-27T00:15:45.307Z,85.50
2019-03-27T00:16:18.365Z,85.80
2019-03-27T00:16:51.405Z,85.90
2019-03-27T00:17:24.436Z,85.90
2019-03-27T00:17:57.474Z,86.10
2019-03-27T00:18:30.508Z,86.30
2019-03-27T00:19:03.542Z,86.50
2019-03-27T00:19:36.565Z,86.70
2019-03-27T00:20:10.493Z,86.80
2019-03-27T00:20:43.790Z,87.00
2019-03-27T00:21:17.668Z,87.10
2019-03-27T00:21:50.732Z,87.20
2019-03-27T00:22:23.768Z,87.40
2019-03-27T00:22:56.811Z,87.50
2019-03-27T00:23:30.297Z,87.70
2019-03-27T00:24:04.329Z,87.90
2019-03-27T00:24:37.360Z,88.10
2019-03-27T00:25:10.812Z,88.30
2019-03-27T00:25:44.126Z,88.50
2019-03-27T00:26:17.155Z,88.70
2019-03-27T00:26:50.494Z,88.80
2019-03-27T00:27:23.537Z,89.00
2019-03-27T00:27:56.559Z,89.20
2019-03-27T00:28:29.598Z,89.40
2019-03-27T00:29:02.603Z,89.70
2019-03-27T00:29:35.630Z,89.80
2019-03-27T00:30:09.570Z,89.80
2019-03-27T00:30:42.586Z,89.70
2019-03-27T00:31:16.010Z,89.80
2019-03-27T00:31:49.499Z,90.00
2019-03-27T00:32:22.510Z,90.00
2019-03-27T00:32:55.572Z,90.10
2019-03-27T00:33:28.593Z,90.20
2019-03-27T00:34:01.620Z,90.20
2019-03-27T00:34:35.078Z,90.30
2019-03-27T00:35:08.644Z,90.30
2019-03-27T00:35:41.949Z,90.40
2019-03-27T00:36:14.961Z,90.40
2019-03-27T00:36:47.978Z,90.60
2019-03-27T00:37:21.004Z,90.60
2019-03-27T00:37:54.317Z,90.60
2019-03-27T00:38:27.381Z,91.00
2019-03-27T00:39:00.784Z,90.80
2019-03-27T00:39:33.815Z,90.90
2019-03-27T00:40:07.566Z,90.90
2019-03-27T00:40:40.923Z,90.90
2019-03-27T00:41:13.954Z,91.10
2019-03-27T00:41:46.978Z,91.20
2019-03-27T00:42:20.001Z,91.30
2019-03-27T00:42:53.368Z,91.40
2019-03-27T00:43:26.705Z,91.40
2019-03-27T00:44:00.200Z,91.50
2019-03-27T00:44:33.210Z,91.60
2019-03-27T00:45:07.154Z,91.60
2019-03-27T00:45:40.578Z,91.70
2019-03-27T00:46:13.923Z,91.70
2019-03-27T00:46:46.943Z,91.80
2019-03-27T00:47:20.320Z,91.90
2019-03-27T00:47:53.395Z,91.90
2019-03-27T00:48:26.384Z,92.00
2019-03-27T00:48:59.550Z,92.40
2019-03-27T00:49:32.595Z,92.20
2019-03-27T00:50:06.005Z,92.30
2019-03-27T00:50:39.027Z,92.40
2019-03-27T00:51:12.463Z,92.50
2019-03-27T00:51:45.496Z,92.60
2019-03-27T00:52:18.511Z,92.70
2019-03-27T00:52:51.626Z,92.70
2019-03-27T00:53:24.681Z,92.80
2019-03-27T00:53:57.716Z,92.80
2019-03-27T00:54:30.743Z,92.80
2019-03-27T00:55:05.166Z,92.80
2019-03-27T00:55:38.876Z,92.90
2019-03-27T00:56:11.896Z,93.00
2019-03-27T00:56:45.222Z,93.00
2019-03-27T00:57:18.653Z,93.00
2019-03-27T00:57:51.674Z,93.00
2019-03-27T00:58:24.695Z,93.10
2019-03-27T00:58:57.720Z,93.10
2019-03-27T00:59:30.740Z,93.10
2019-03-27T01:00:05.752Z,93.10
2019-03-27T01:01:10.955Z,93.20
2019-03-27T01:01:43.995Z,93.20
2019-03-27T01:02:17.040Z,93.20
2019-03-27T01:02:50.531Z,93.10
2019-03-27T01:03:23.536Z,93.20
2019-03-27T01:03:56.564Z,93.20
2019-03-27T01:04:29.602Z,93.10
2019-03-27T01:05:03.006Z,93.10
2019-03-27T01:05:36.006Z,93.10
2019-03-27T01:06:09.123Z,93.10
2019-03-27T01:06:42.521Z,93.10
2019-03-27T01:07:15.539Z,93.20
2019-03-27T01:07:48.558Z,93.20
2019-03-27T01:08:21.582Z,93.20
2019-03-27T01:08:54.883Z,93.20
2019-03-27T01:09:28.210Z,93.20
2019-03-27T01:10:01.600Z,93.50
2019-03-27T01:10:35.226Z,93.10
2019-03-27T01:11:08.276Z,93.10
2019-03-27T01:11:42.655Z,93.20
2019-03-27T01:12:15.702Z,93.20
2019-03-27T01:12:48.842Z,93.20
2019-03-27T01:13:21.868Z,93.30
2019-03-27T01:13:55.270Z,93.30
2019-03-27T01:14:28.290Z,93.40
2019-03-27T01:15:01.332Z,93.50
2019-03-27T01:15:39.565Z,93.50
2019-03-27T01:16:09.335Z,93.60
2019-03-27T01:16:42.700Z,93.70
2019-03-27T01:17:15.732Z,93.70
2019-03-27T01:17:48.790Z,93.80
2019-03-27T01:18:21.820Z,94.10
2019-03-27T01:18:54.852Z,93.90
2019-03-27T01:19:27.875Z,94.00
2019-03-27T01:20:01.293Z,94.10
2019-03-27T01:20:34.331Z,94.10
2019-03-27T01:21:07.355Z,94.30
2019-03-27T01:21:40.374Z,94.30
2019-03-27T01:22:13.416Z,94.40
2019-03-27T01:22:46.442Z,94.40
2019-03-27T01:23:19.509Z,94.40
2019-03-27T01:23:53.288Z,94.40
2019-03-27T01:24:26.430Z,94.50
2019-03-27T01:24:59.481Z,94.60
2019-03-27T01:25:32.505Z,94.50
2019-03-27T01:26:05.901Z,94.50
2019-03-27T01:26:38.921Z,94.50
2019-03-27T01:27:11.934Z,94.50
2019-03-27T01:27:45.370Z,94.50
2019-03-27T01:28:18.383Z,94.50
2019-03-27T01:28:51.784Z,94.50
2019-03-27T01:29:24.801Z,94.60
2019-03-27T01:29:57.839Z,94.60
2019-03-27T01:30:30.853Z,94.70
2019-03-27T01:31:04.385Z,94.70
2019-03-27T01:31:37.411Z,94.70
2019-03-27T01:32:10.563Z,94.70
2019-03-27T01:32:43.571Z,94.70
2019-03-27T01:33:16.586Z,94.80
2019-03-27T01:33:49.620Z,94.90
2019-03-27T01:34:23.110Z,95.00
2019-03-27T01:34:56.941Z,95.20
2019-03-27T01:35:29.979Z,95.30
2019-03-27T01:36:03.431Z,95.50
2019-03-27T01:36:36.438Z,95.50
2019-03-27T01:37:09.855Z,95.50
2019-03-27T01:37:42.896Z,95.60
2019-03-27T01:38:15.912Z,95.60
2019-03-27T01:38:48.929Z,95.80
2019-03-27T01:39:22.306Z,95.90
2019-03-27T01:39:55.375Z,96.00
2019-03-27T01:40:28.730Z,96.00
2019-03-27T01:41:01.766Z,96.10
2019-03-27T01:41:34.784Z,96.20
2019-03-27T01:42:08.103Z,96.30
2019-03-27T01:42:41.116Z,96.40
2019-03-27T01:43:14.137Z,96.40
2019-03-27T01:43:47.162Z,96.50
2019-03-27T01:44:20.178Z,96.60
2019-03-27T01:44:53.204Z,96.60
2019-03-27T01:45:26.646Z,96.80
2019-03-27T01:45:59.674Z,96.90
2019-03-27T01:46:32.697Z,97.00
2019-03-27T01:47:05.708Z,97.10
2019-03-27T01:47:39.132Z,97.20
2019-03-27T01:48:12.155Z,97.20
2019-03-27T01:48:45.456Z,97.30
2019-03-27T01:49:18.472Z,97.40
2019-03-27T01:49:51.483Z,97.50
2019-03-27T01:50:24.875Z,97.60
2019-03-27T01:50:57.984Z,97.60
2019-03-27T01:51:31.254Z,97.70
2019-03-27T01:52:04.265Z,97.80
2019-03-27T01:52:37.631Z,97.80
2019-03-27T01:53:10.909Z,97.80
2019-03-27T01:53:44.202Z,97.90
2019-03-27T01:54:17.229Z,98.00
2019-03-27T01:54:50.912Z,98.00
2019-03-27T01:55:23.931Z,98.10
2019-03-27T01:55:56.970Z,98.20
2019-03-27T01:56:30.382Z,98.30
2019-03-27T01:57:03.398Z,98.50
2019-03-27T01:57:36.410Z,98.60
2019-03-27T01:58:09.780Z,98.80
2019-03-27T01:58:42.794Z,98.90
2019-03-27T01:59:15.810Z,99.00
2019-03-27T01:59:49.107Z,99.10
2019-03-27T02:00:22.408Z,99.20
2019-03-27T02:00:55.416Z,99.40
2019-03-27T02:01:28.422Z,99.50
2019-03-27T02:02:01.462Z,99.50
2019-03-27T02:02:34.495Z,99.60
2019-03-27T02:03:07.499Z,99.60
2019-03-27T02:03:40.519Z,99.80
2019-03-27T02:04:14.346Z,99.90
2019-03-27T02:04:47.507Z,99.90
2019-03-27T02:05:20.522Z,99.90
2019-03-27T02:05:53.551Z,99.90
2019-03-27T02:06:26.851Z,99.90
2019-03-27T02:06:59.859Z,99.90
2019-03-27T02:07:32.920Z,99.90
2019-03-27T02:08:06.303Z,99.90
2019-03-27T02:08:39.328Z,99.90
2019-03-27T02:09:12.338Z,99.90
2019-03-27T02:09:45.626Z,99.90
2019-03-27T02:10:18.651Z,99.90
2019-03-27T02:10:51.662Z,99.90
2019-03-27T02:11:24.681Z,99.90
2019-03-27T02:11:57.708Z,99.90
2019-03-27T02:12:30.724Z,99.90
2019-03-27T02:13:04.202Z,99.90
2019-03-27T02:13:37.540Z,99.90
2019-03-27T02:14:10.537Z,99.90
2019-03-27T02:14:43.854Z,99.90
2019-03-27T02:15:17.149Z,99.90
2019-03-27T02:15:50.167Z,99.90
2019-03-27T02:16:23.185Z,99.90
2019-03-27T02:16:56.187Z,99.90
2019-03-27T02:17:29.862Z,99.90
2019-03-27T02:18:02.879Z,99.90
2019-03-27T02:18:35.922Z,99.90
2019-03-27T02:19:08.938Z,99.90
2019-03-27T02:19:41.954Z,99.90
2019-03-27T02:20:15.333Z,99.90
2019-03-27T02:20:48.353Z,99.90
2019-03-27T02:21:22.552Z,99.90
2019-03-27T02:21:55.566Z,99.90
2019-03-27T02:22:28.889Z,99.90
2019-03-27T02:23:01.902Z,99.90
2019-03-27T02:23:34.920Z,99.90
2019-03-27T02:24:07.972Z,99.90
2019-03-27T02:24:41.249Z,99.90
2019-03-27T02:25:14.266Z,99.90
2019-03-27T02:25:47.283Z,99.90
2019-03-27T02:26:20.559Z,99.90
2019-03-27T02:26:53.585Z,99.90
2019-03-27T02:27:26.581Z,99.90
2019-03-27T02:27:59.861Z,99.90
2019-03-27T02:28:32.881Z,99.90
2019-03-27T02:29:05.916Z,99.90
2019-03-27T02:29:38.956Z,99.90
2019-03-27T02:30:12.083Z,99.90
2019-03-27T02:30:45.464Z,99.90
2019-03-27T02:31:18.933Z,99.90
2019-03-27T02:31:51.957Z,99.90
2019-03-27T02:32:25.680Z,99.90
2019-03-27T02:32:58.678Z,99.90
2019-03-27T02:33:31.703Z,99.90
2019-03-27T02:34:04.720Z,99.90
2019-03-27T02:34:38.066Z,99.90
2019-03-27T02:35:11.128Z,99.90
2019-03-27T02:35:44.434Z,99.90
2019-03-27T02:36:17.465Z,99.90
2019-03-27T02:36:50.789Z,99.90
2019-03-27T02:37:24.086Z,99.90
2019-03-27T02:37:57.465Z,99.90
2019-03-27T02:38:30.475Z,99.90
2019-03-27T02:39:04.951Z,99.90
2019-03-27T02:39:37.975Z,99.90
2019-03-27T02:40:11.136Z,99.90
2019-03-27T02:40:44.159Z,99.90
2019-03-27T02:41:17.823Z,99.90
2019-03-27T02:41:50.834Z,99.90
2019-03-27T02:42:24.220Z,99.90
2019-03-27T02:43:00.574Z,99.90
2019-03-27T02:43:33.611Z,99.90
2019-03-27T02:44:07.014Z,99.90
2019-03-27T02:44:40.044Z,99.90
2019-03-27T02:45:13.590Z,99.90
2019-03-27T02:45:46.971Z,99.90
2019-03-27T02:46:25.070Z,99.90
2019-03-27T02:46:55.567Z,99.90
2019-03-27T02:47:28.608Z,99.90
2019-03-27T02:48:01.964Z,99.90
2019-03-27T02:48:34.994Z,99.90
2019-03-27T02:49:08.017Z,99.90
2019-03-27T02:49:41.352Z,99.90
2019-03-27T02:50:15.249Z,99.90
2019-03-27T02:50:48.273Z,99.90
2019-03-27T02:51:21.301Z,99.90
2019-03-27T02:51:54.665Z,99.90
2019-03-27T02:52:27.676Z,99.90
2019-03-27T02:53:00.700Z,99.90
2019-03-27T02:53:34.098Z,99.90
2019-03-27T02:54:07.130Z,99.90
2019-03-27T02:54:40.151Z,99.90
2019-03-27T02:55:13.189Z,99.90
2019-03-27T02:55:47.018Z,99.90
2019-03-27T02:56:20.427Z,99.90
2019-03-27T02:56:53.498Z,99.90
2019-03-27T02:57:26.948Z,99.90
2019-03-27T02:57:59.962Z,99.90
2019-03-27T02:58:33.011Z,99.90
2019-03-27T02:59:06.388Z,99.90
2019-03-27T02:59:39.428Z,99.90
2019-03-27T03:00:13.463Z,99.90
2019-03-27T03:00:46.483Z,99.90
2019-03-27T03:01:19.521Z,99.90
2019-03-27T03:01:52.890Z,99.90
2019-03-27T03:02:26.585Z,99.90
2019-03-27T03:02:59.637Z,99.90
2019-03-27T03:03:33.072Z,99.90
2019-03-27T03:04:06.114Z,99.90
2019-03-27T03:04:39.506Z,99.90
2019-03-27T03:05:12.935Z,99.90
2019-03-27T03:05:45.960Z,99.90
2019-03-27T03:06:19.355Z,99.90
2019-03-27T03:06:52.757Z,99.90
2019-03-27T03:07:25.760Z,99.90
2019-03-27T03:07:58.785Z,99.90
2019-03-27T03:08:31.873Z,99.90
2019-03-27T03:09:05.782Z,99.90
2019-03-27T03:09:38.796Z,99.90
2019-03-27T03:10:13.212Z,99.90
2019-03-27T03:10:46.265Z,99.90
2019-03-27T03:11:19.734Z,99.90
2019-03-27T03:11:52.760Z,99.90
2019-03-27T03:12:26.545Z,99.90
2019-03-27T03:12:59.601Z,99.90
2019-03-27T03:13:33.012Z,99.90
2019-03-27T03:14:06.089Z,99.90
2019-03-27T03:14:39.109Z,99.90
2019-03-27T03:15:14.090Z,99.90
2019-03-27T03:15:47.121Z,99.90
2019-03-27T03:16:20.142Z,99.90
2019-03-27T03:16:53.160Z,99.90
2019-03-27T03:17:26.161Z,99.90
2019-03-27T03:17:59.559Z,99.90
2019-03-27T03:18:32.624Z,99.90
2019-03-27T03:19:05.658Z,99.90
2019-03-27T03:19:38.708Z,99.90
2019-03-27T03:20:11.862Z,99.90
2019-03-27T03:20:44.891Z,99.90
2019-03-27T03:21:17.889Z,99.90
2019-03-27T03:21:50.910Z,99.90
2019-03-27T03:22:23.919Z,99.90
2019-03-27T03:22:56.939Z,99.90
2019-03-27T03:23:29.964Z,99.90
2019-03-27T03:24:03.371Z,99.90
2019-03-27T03:24:36.785Z,99.90
2019-03-27T03:25:10.194Z,99.90
2019-03-27T03:25:43.512Z,99.90
2019-03-27T03:26:16.912Z,99.90
2019-03-27T03:26:51.493Z,99.90
2019-03-27T03:27:25.020Z,99.90
2019-03-27T03:27:58.414Z,99.90
2019-03-27T03:28:32.278Z,99.90
2019-03-27T03:29:05.657Z,99.90
2019-03-27T03:29:39.070Z,99.90
2019-03-27T03:30:12.539Z,99.90
2019-03-27T03:30:45.606Z,99.90
2019-03-27T03:31:18.975Z,99.90
2019-03-27T03:31:52.010Z,99.90
2019-03-27T03:32:25.322Z,99.90
2019-03-27T03:32:58.615Z,99.90
2019-03-27T03:33:32.033Z,99.90
2019-03-27T03:34:05.407Z,99.90
2019-03-27T03:34:38.813Z,99.90
2019-03-27T03:35:12.041Z,99.90
2019-03-27T03:35:45.492Z,99.90
2019-03-27T03:36:18.897Z,99.90
2019-03-27T03:36:52.327Z,99.90
2019-03-27T03:37:25.741Z,99.90
2019-03-27T03:37:58.764Z,99.90
2019-03-27T03:38:31.793Z,99.90
2019-03-27T03:39:05.887Z,99.90
2019-03-27T03:39:39.737Z,99.90
2019-03-27T03:40:14.584Z,99.90
2019-03-27T03:40:47.921Z,99.90
2019-03-27T03:41:20.932Z,99.90
2019-03-27T03:41:54.677Z,99.90
2019-03-27T03:42:27.906Z,99.90
2019-03-27T03:43:00.951Z,99.90
2019-03-27T03:43:34.718Z,99.90
2019-03-27T03:44:07.870Z,99.90
2019-03-27T03:44:41.005Z,99.90
2019-03-27T03:45:15.489Z,99.90
2019-03-27T03:45:48.500Z,99.90
2019-03-27T03:46:21.523Z,99.90
2019-03-27T03:47:00.030Z,99.90
2019-03-27T03:47:29.403Z,99.90
2019-03-27T03:48:02.431Z,99.90
2019-03-27T03:48:35.802Z,99.90
2019-03-27T03:49:08.828Z,99.90
2019-03-27T03:49:41.859Z,99.90
2019-03-27T03:50:36.716Z,99.90
2019-03-27T03:51:10.150Z,99.90
2019-03-27T03:51:44.129Z,99.90
2019-03-27T03:52:18.974Z,99.90
2019-03-27T03:52:52.037Z,99.90
2019-03-27T03:53:25.964Z,99.90
2019-03-27T03:53:59.985Z,99.90
2019-03-27T03:54:33.213Z,99.90
2019-03-27T03:55:06.355Z,99.90
2019-03-27T03:55:40.402Z,99.90
2019-03-27T03:56:14.655Z,99.90
2019-03-27T03:56:49.576Z,99.90
2019-03-27T03:57:24.790Z,99.90
2019-03-27T03:57:58.075Z,99.90
2019-03-27T03:58:33.417Z,99.90
2019-03-27T03:59:07.077Z,99.90
2019-03-27T03:59:41.075Z,99.90
2019-03-27T04:00:14.451Z,99.90
2019-03-27T04:00:47.710Z,99.90
2019-03-27T04:01:24.268Z,99.90
2019-03-27T04:02:01.644Z,99.90
2019-03-27T04:02:36.240Z,99.90
2019-03-27T04:03:10.026Z,99.90
2019-03-27T04:03:45.957Z,99.90
2019-03-27T04:04:21.614Z,99.90
2019-03-27T04:04:56.682Z,99.90
2019-03-27T04:05:29.722Z,99.90
2019-03-27T04:06:02.756Z,99.90
2019-03-27T04:06:35.778Z,99.90
2019-03-27T04:07:08.845Z,99.90
2019-03-27T04:07:41.885Z,99.90
2019-03-27T04:08:15.319Z,99.90
2019-03-27T04:08:48.301Z,99.90
2019-03-27T04:09:21.311Z,99.90
2019-03-27T04:09:54.323Z,99.90
2019-03-27T04:10:27.357Z,99.90
2019-03-27T04:11:00.410Z,99.90
2019-03-27T04:11:33.443Z,99.90
2019-03-27T04:12:06.911Z,99.90
2019-03-27T04:12:40.341Z,99.90
2019-03-27T04:13:13.355Z,99.90
2019-03-27T04:13:46.424Z,99.90
2019-03-27T04:14:19.446Z,99.90
2019-03-27T04:14:52.470Z,99.90
2019-03-27T04:15:25.489Z,99.90
2019-03-27T04:15:58.533Z,99.90
2019-03-27T04:16:31.978Z,99.90
2019-03-27T04:17:17.131Z,99.90
2019-03-27T04:17:39.852Z,99.90
2019-03-27T04:18:13.341Z,99.90
2019-03-27T04:18:46.734Z,99.90
2019-03-27T04:19:19.782Z,99.90
2019-03-27T04:19:52.799Z,99.90
2019-03-27T04:20:25.840Z,99.90
2019-03-27T04:20:58.851Z,99.90
2019-03-27T04:21:31.885Z,99.90
2019-03-27T04:22:04.899Z,99.90
2019-03-27T04:22:37.928Z,99.90
2019-03-27T04:23:11.225Z,99.90
2019-03-27T04:23:44.248Z,99.90
2019-03-27T04:24:17.267Z,99.90
2019-03-27T04:24:50.666Z,99.90
2019-03-27T04:25:23.691Z,99.90
2019-03-27T04:26:09.812Z,99.90
2019-03-27T04:26:33.617Z,99.90
2019-03-27T04:27:06.885Z,99.90
2019-03-27T04:27:40.225Z,99.90
2019-03-27T04:28:13.271Z,99.90
2019-03-27T04:28:46.588Z,99.90
2019-03-27T04:29:20.048Z,99.90
2019-03-27T04:29:53.105Z,99.90
2019-03-27T04:30:26.115Z,99.90
2019-03-27T04:30:59.146Z,99.90
2019-03-27T04:31:32.640Z,99.90
2019-03-27T04:32:05.661Z,99.90
2019-03-27T04:32:38.701Z,99.90
2019-03-27T04:33:11.728Z,99.90
2019-03-27T04:33:44.840Z,99.90
2019-03-27T04:34:18.077Z,99.90
2019-03-27T04:34:51.111Z,99.90
2019-03-27T04:35:24.186Z,99.90
2019-03-27T04:35:57.655Z,99.90
2019-03-27T04:36:30.685Z,99.90
2019-03-27T04:37:03.702Z,99.90
2019-03-27T04:37:40.296Z,99.90
2019-03-27T04:38:13.687Z,99.90
2019-03-27T04:38:46.904Z,99.90
2019-03-27T04:39:20.357Z,99.90
2019-03-27T04:39:53.390Z,99.90
2019-03-27T04:40:26.795Z,99.90
2019-03-27T04:40:59.866Z,99.90
2019-03-27T04:41:33.250Z,99.90
2019-03-27T04:42:06.281Z,99.90
2019-03-27T04:42:39.307Z,99.90
2019-03-27T04:43:12.318Z,99.90
2019-03-27T04:43:45.356Z,99.90
2019-03-27T04:44:18.765Z,99.90
2019-03-27T04:44:51.794Z,99.90
2019-03-27T04:45:24.806Z,99.90
2019-03-27T04:45:58.185Z,99.90
2019-03-27T04:46:31.262Z,99.90
2019-03-27T04:47:04.287Z,99.90
2019-03-27T04:47:37.706Z,99.90
2019-03-27T04:48:10.727Z,99.90
2019-03-27T04:48:43.765Z,99.90
2019-03-27T04:49:16.790Z,99.90
2019-03-27T04:49:49.819Z,99.90
2019-03-27T04:50:22.859Z,99.90
2019-03-27T04:50:56.241Z,99.90
2019-03-27T04:51:29.272Z,99.90
2019-03-27T04:52:02.347Z,99.90
2019-03-27T04:52:35.363Z,99.90
2019-03-27T04:53:08.675Z,99.90
2019-03-27T04:53:41.745Z,99.90
2019-03-27T04:54:14.783Z,99.90
2019-03-27T04:54:48.188Z,99.90
2019-03-27T04:55:21.198Z,99.90
2019-03-27T04:55:54.231Z,99.90
2019-03-27T04:56:27.654Z,99.90
2019-03-27T04:57:00.971Z,99.90
2019-03-27T04:57:34.039Z,99.90
2019-03-27T04:58:07.077Z,99.90
2019-03-27T04:58:40.140Z,99.90
2019-03-27T04:59:13.153Z,99.90
2019-03-27T04:59:46.995Z,99.90
2019-03-27T05:00:20.022Z,99.90
2019-03-27T05:00:53.030Z,99.90
2019-03-27T05:01:26.043Z,99.90
2019-03-27T05:01:59.393Z,99.90
2019-03-27T05:02:32.427Z,99.90
2019-03-27T05:03:06.067Z,99.90
2019-03-27T05:03:39.090Z,99.90
2019-03-27T05:04:12.122Z,99.90
2019-03-27T05:04:45.138Z,99.90
2019-03-27T05:05:18.188Z,99.90
2019-03-27T05:05:51.369Z,99.90
2019-03-27T05:06:24.383Z,99.90
2019-03-27T05:06:57.423Z,99.90
2019-03-27T05:07:30.750Z,99.90
2019-03-27T05:08:03.779Z,99.90
2019-03-27T05:08:36.835Z,99.90
2019-03-27T05:09:10.342Z,99.90
2019-03-27T05:09:43.346Z,99.90
2019-03-27T05:10:16.392Z,99.90
2019-03-27T05:10:50.337Z,99.90
2019-03-27T05:11:23.376Z,99.90
2019-03-27T05:11:56.814Z,99.90
2019-03-27T05:12:30.317Z,99.90
2019-03-27T05:13:03.655Z,99.90
2019-03-27T05:13:36.670Z,99.90
2019-03-27T05:14:09.731Z,99.90
2019-03-27T05:14:42.762Z,99.90
2019-03-27T05:15:15.794Z,99.90
2019-03-27T05:15:48.848Z,99.90
2019-03-27T05:16:21.871Z,99.90
2019-03-27T05:16:55.690Z,99.90
2019-03-27T05:17:28.719Z,99.90
2019-03-27T05:18:01.751Z,99.90
2019-03-27T05:18:34.785Z,99.90
2019-03-27T05:19:07.829Z,99.90
2019-03-27T05:19:41.242Z,99.90
2019-03-27T05:20:14.283Z,99.90
2019-03-27T05:20:47.308Z,99.90
2019-03-27T05:21:20.738Z,99.90
2019-03-27T05:21:53.808Z,99.90
2019-03-27T05:22:27.164Z,99.90
2019-03-27T05:23:00.187Z,99.90
2019-03-27T05:23:33.222Z,99.90
2019-03-27T05:24:06.257Z,99.90
2019-03-27T05:24:39.297Z,99.90
2019-03-27T05:25:12.364Z,99.90
2019-03-27T05:25:45.398Z,99.90
2019-03-27T05:26:18.424Z,99.90
2019-03-27T05:26:51.452Z,99.90
2019-03-27T05:27:24.479Z,99.90
2019-03-27T05:27:57.727Z,99.90
2019-03-27T05:28:30.768Z,99.90
2019-03-27T05:29:03.790Z,99.90
2019-03-27T05:29:37.169Z,99.90
2019-03-27T05:30:10.231Z,99.90
2019-03-27T05:30:43.680Z,99.90
2019-03-27T05:31:16.707Z,99.90
2019-03-27T05:31:50.101Z,99.90
2019-03-27T05:32:23.148Z,99.90
2019-03-27T05:32:56.560Z,99.90
2019-03-27T05:33:32.537Z,99.90
2019-03-27T05:34:04.418Z,99.90
2019-03-27T05:34:37.447Z,99.90
2019-03-27T05:35:10.504Z,99.90
2019-03-27T05:35:43.845Z,99.90
2019-03-27T05:36:16.888Z,99.90
2019-03-27T05:36:49.939Z,99.90
2019-03-27T05:37:22.976Z,99.90
2019-03-27T05:37:56.042Z,99.90
2019-03-27T05:38:29.444Z,99.90
2019-03-27T05:39:03.050Z,99.90
2019-03-27T05:39:36.083Z,99.90
2019-03-27T05:40:09.315Z,99.90
2019-03-27T05:40:42.461Z,99.90
2019-03-27T05:41:15.491Z,99.90
2019-03-27T05:41:48.563Z,99.90
2019-03-27T05:42:21.600Z,99.90
2019-03-27T05:43:00.814Z,99.90
2019-03-27T05:43:31.475Z,99.90
2019-03-27T05:44:04.508Z,99.90
2019-03-27T05:44:37.824Z,99.90
2019-03-27T05:45:10.940Z,99.90
2019-03-27T05:45:44.549Z,99.90
2019-03-27T05:46:17.854Z,99.90
2019-03-27T05:46:51.691Z,99.90
2019-03-27T05:47:24.728Z,99.90
2019-03-27T05:47:59.950Z,99.90
2019-03-27T05:48:32.605Z,99.90
2019-03-27T05:49:05.633Z,99.90
2019-03-27T05:49:39.011Z,99.90
2019-03-27T05:50:12.551Z,99.90
2019-03-27T05:50:45.588Z,99.90
2019-03-27T05:51:18.624Z,99.90
2019-03-27T05:51:51.665Z,99.90
2019-03-27T05:52:25.251Z,99.90
2019-03-27T05:52:58.269Z,99.90
2019-03-27T05:53:31.298Z,99.90
2019-03-27T05:54:04.356Z,99.90
2019-03-27T05:54:38.028Z,99.90
2019-03-27T05:55:11.047Z,99.90
2019-03-27T05:55:44.107Z,99.90
2019-03-27T05:56:17.764Z,99.90
2019-03-27T05:56:50.798Z,99.90
2019-03-27T05:57:24.252Z,99.90
2019-03-27T05:57:57.591Z,99.90
2019-03-27T05:58:30.629Z,99.90
2019-03-27T05:59:03.646Z,99.90
2019-03-27T05:59:36.697Z,99.90
2019-03-27T06:00:10.335Z,99.90
2019-03-27T06:00:43.359Z,99.90
2019-03-27T06:01:17.182Z,99.90
2019-03-27T06:01:50.198Z,99.90
2019-03-27T06:02:23.235Z,99.90
2019-03-27T06:02:56.271Z,99.90
2019-03-27T06:03:29.333Z,99.90
2019-03-27T06:04:02.345Z,99.90
2019-03-27T06:04:35.416Z,99.90
2019-03-27T06:05:08.826Z,99.90
2019-03-27T06:05:42.220Z,99.90
2019-03-27T06:06:15.531Z,99.90
2019-03-27T06:06:49.355Z,99.90
2019-03-27T06:07:22.374Z,99.90
2019-03-27T06:07:56.023Z,99.90
2019-03-27T06:08:29.060Z,99.90
2019-03-27T06:09:03.783Z,99.90
2019-03-27T06:09:36.807Z,99.90
2019-03-27T06:10:10.263Z,99.90
2019-03-27T06:10:43.701Z,99.90
2019-03-27T06:11:16.854Z,99.90
2019-03-27T06:11:50.384Z,99.90
2019-03-27T06:12:24.244Z,99.90
2019-03-27T06:12:57.297Z,99.90
2019-03-27T06:13:30.831Z,99.90
2019-03-27T06:14:04.673Z,99.90
2019-03-27T06:14:37.763Z,99.90
2019-03-27T06:15:11.071Z,99.90
2019-03-27T06:15:45.272Z,99.90
2019-03-27T06:16:18.410Z,99.90
2019-03-27T06:16:51.831Z,99.90
2019-03-27T06:17:25.309Z,99.90
2019-03-27T06:17:58.344Z,99.90
2019-03-27T06:18:31.712Z,99.90
2019-03-27T06:19:04.714Z,99.90
2019-03-27T06:19:38.461Z,99.90
2019-03-27T06:20:11.527Z,99.90
2019-03-27T06:20:44.545Z,99.90
2019-03-27T06:21:17.571Z,99.90
2019-03-27T06:21:50.920Z,99.90
2019-03-27T06:22:23.935Z,99.90
2019-03-27T06:22:56.955Z,99.90
2019-03-27T06:23:30.660Z,99.90
2019-03-27T06:24:03.679Z,99.90
2019-03-27T06:24:36.702Z,99.90
2019-03-27T06:25:10.182Z,99.90
2019-03-27T06:25:43.613Z,99.90
2019-03-27T06:26:16.634Z,99.90
2019-03-27T06:26:49.668Z,99.90
2019-03-27T06:27:22.672Z,99.90
2019-03-27T06:27:55.914Z,99.90
2019-03-27T06:28:28.937Z,99.90
2019-03-27T06:29:02.443Z,99.90
2019-03-27T06:29:35.471Z,99.90
2019-03-27T06:30:08.982Z,99.90
2019-03-27T06:30:42.351Z,99.90
2019-03-27T06:31:15.538Z,99.90
2019-03-27T06:32:07.793Z,99.90
2019-03-27T06:32:41.398Z,99.90
2019-03-27T06:33:14.436Z,99.90
2019-03-27T06:33:47.458Z,99.90
2019-03-27T06:34:20.832Z,99.90
2019-03-27T06:34:53.863Z,99.90
2019-03-27T06:35:27.315Z,99.90
2019-03-27T06:36:00.342Z,99.90
2019-03-27T06:36:33.820Z,99.90
2019-03-27T06:37:07.153Z,99.90
2019-03-27T06:37:40.624Z,99.90
2019-03-27T06:38:13.639Z,99.90
2019-03-27T06:38:46.669Z,99.90
2019-03-27T06:39:19.683Z,99.90
2019-03-27T06:39:52.706Z,99.90
2019-03-27T06:40:26.157Z,99.90
2019-03-27T06:40:59.725Z,99.90
2019-03-27T06:41:32.750Z,99.90
2019-03-27T06:42:06.104Z,99.90
2019-03-27T06:42:39.261Z,99.90
2019-03-27T06:43:12.301Z,99.90
2019-03-27T06:43:45.730Z,99.90
2019-03-27T06:44:18.758Z,99.90
2019-03-27T06:44:52.131Z,99.90
2019-03-27T06:45:25.146Z,99.90
2019-03-27T06:45:58.576Z,99.90
2019-03-27T06:46:31.966Z,99.90
2019-03-27T06:47:05.355Z,99.90
2019-03-27T06:47:38.421Z,99.90
2019-03-27T06:48:11.512Z,99.90
2019-03-27T06:48:44.541Z,99.90
2019-03-27T06:49:17.585Z,99.90
2019-03-27T06:49:50.607Z,99.90
2019-03-27T06:50:23.631Z,99.90
2019-03-27T06:50:56.671Z,99.90
2019-03-27T06:51:39.491Z,99.90
2019-03-27T06:52:04.642Z,99.90
2019-03-27T06:52:37.659Z,99.90
2019-03-27T06:53:10.725Z,99.90
2019-03-27T06:53:44.142Z,99.90
2019-03-27T06:54:17.176Z,99.90
2019-03-27T06:54:50.212Z,99.90
2019-03-27T06:55:23.226Z,99.90
2019-03-27T06:55:56.268Z,99.90
2019-03-27T06:56:29.707Z,99.90
2019-03-27T06:57:02.853Z,99.90
2019-03-27T06:57:36.037Z,99.90
2019-03-27T06:58:09.529Z,99.90
2019-03-27T06:58:54.061Z,99.90
2019-03-27T06:59:17.428Z,99.90
2019-03-27T06:59:50.460Z,99.90
2019-03-27T07:00:33.763Z,99.90
2019-03-27T07:01:06.787Z,99.90
2019-03-27T07:01:40.182Z,99.90
2019-03-27T07:02:13.208Z,99.90
2019-03-27T07:02:46.236Z,99.90
2019-03-27T07:03:19.267Z,99.90
2019-03-27T07:03:52.333Z,99.90
2019-03-27T07:04:25.365Z,99.90
2019-03-27T07:04:58.393Z,99.90
2019-03-27T07:05:31.420Z,99.90
2019-03-27T07:06:04.452Z,99.90
2019-03-27T07:06:37.500Z,99.90
2019-03-27T07:07:10.538Z,99.90
2019-03-27T07:07:43.542Z,99.90
2019-03-27T07:08:16.581Z,99.90
2019-03-27T07:08:49.596Z,99.90
2019-03-27T07:09:22.656Z,99.90
2019-03-27T07:09:55.692Z,99.90
2019-03-27T07:10:28.736Z,99.90